Terminal Aerodrome Forecast
Issued by NWS Cleveland, OH

Home | Current Version | Previous Version | Graphics & Text | Print | Product List | Glossary Off
Versions: 1 2 3 4 5 6 7 8 9 10 11 12 13 14 15 16 17 18 19 20 21

000
FTUS41 KCLE 241100
TAFYNG
TAF
KYNG 241137Z 2412/2512 VRB03KT P6SM FEW150 BKN200
     FM241600 05006KT P6SM BKN080 OVC150
     FM250100 10008KT P6SM BKN080 OVC150=

USA.gov is the U.S. government's official web portal to all federal, state and local government web resources and services.